Time;durP1;ratioP1;P1;durP2;ratioP2;P2;SDS_P1;SDS_P2;PMS_P1;PMS_P2;Temp;Humidity;BMP_temperature;BMP_pressure;BME280_temperature;BME280_humidity;BME280_pressure;Samples;Min_cycle;Max_cycle;Signal;HPM_P1;HPM_P2
2021/07/13 00:02:16;;;;;;;3.92;3.63;;;;;;;21.98;80.04;99454.22;10418333;28;20057;-73
2021/07/13 00:07:17;;;;;;;4.82;4.32;;;;;;;22.04;81.67;99455.22;10416731;28;20061;-72
2021/07/13 00:12:19;;;;;;;3.63;3.33;;;;;;;22.02;81.22;99443.75;10418989;28;20107;-73
2021/07/13 00:17:20;;;;;;;4.05;3.65;;;;;;;22.03;81.50;99457.09;10416129;28;20060;-72
2021/07/13 00:22:22;;;;;;;3.88;3.50;;;;;;;22.06;81.49;99464.78;10427265;28;20041;-73
2021/07/13 00:27:23;;;;;;;4.00;3.70;;;;;;;22.02;82.03;99454.59;10414829;28;20049;-73
2021/07/13 00:32:25;;;;;;;3.50;3.20;;;;;;;22.01;81.97;99453.78;10424833;28;20537;-74
2021/07/13 00:37:26;;;;;;;4.20;3.42;;;;;;;22.02;81.52;99449.19;10415966;28;20514;-72
2021/07/13 00:42:28;;;;;;;3.72;3.40;;;;;;;21.99;81.24;99461.31;10415995;28;20072;-73
2021/07/13 00:47:30;;;;;;;4.55;3.90;;;;;;;21.93;81.66;99451.31;10438587;28;20044;-74
2021/07/13 00:52:32;;;;;;;6.00;4.55;;;;;;;21.91;82.73;99452.59;10425365;28;20458;-73
2021/07/13 00:57:36;;;;;;;6.53;4.70;;;;;;;21.88;82.48;99449.25;10438643;28;20057;-72
2021/07/13 01:02:38;;;;;;;5.05;4.13;;;;;;;21.87;83.55;99434.06;10425135;28;20048;-74
2021/07/13 01:07:51;;;;;;;5.30;4.05;;;;;;;21.82;83.85;99436.59;10424016;28;20045;-72
2021/07/13 01:13:03;;;;;;;4.47;3.80;;;;;;;21.76;83.49;99434.75;10420147;28;20438;-72
2021/07/13 01:18:22;;;;;;;3.97;3.10;;;;;;;21.63;84.64;99434.81;10428064;28;20056;-73
2021/07/13 01:23:36;;;;;;;10.90;4.45;;;;;;;21.61;83.37;99436.91;10414492;28;20052;-74
2021/07/13 01:28:45;;;;;;;5.47;3.70;;;;;;;21.61;84.95;99426.91;10423124;28;20044;-75
2021/07/13 01:33:53;;;;;;;4.90;3.70;;;;;;;21.62;86.24;99431.28;10427337;28;20041;-74
2021/07/13 01:38:58;;;;;;;4.70;4.18;;;;;;;21.56;84.90;99428.59;10426268;28;20431;-73
2021/07/13 01:44:02;;;;;;;5.15;4.38;;;;;;;21.57;86.57;99422.13;10423946;28;20056;-73
2021/07/13 01:49:04;;;;;;;5.30;4.70;;;;;;;21.62;86.33;99427.72;10421239;28;20048;-72
2021/07/13 01:54:09;;;;;;;6.05;4.47;;;;;;;21.57;87.10;99420.25;10424443;28;20048;-72
2021/07/13 01:59:15;;;;;;;9.23;5.80;;;;;;;21.56;87.70;99429.44;10421239;28;20396;-72
2021/07/13 02:04:18;;;;;;;5.40;4.88;;;;;;;21.57;87.10;99422.13;10424880;28;20044;-73
2021/07/13 02:09:19;;;;;;;6.03;4.85;;;;;;;21.57;86.76;99433.78;10418546;28;20060;-72
2021/07/13 02:14:21;;;;;;;3.90;3.60;;;;;;;21.53;86.39;99438.00;10410423;28;20067;-70
2021/07/13 02:19:25;;;;;;;5.95;4.38;;;;;;;21.43;87.47;99440.28;10408798;28;20102;-72
2021/07/13 02:24:26;;;;;;;5.47;4.97;;;;;;;21.26;87.05;99445.34;10413936;28;20053;-72
2021/07/13 02:29:35;;;;;;;5.47;4.97;;;;;;;21.22;88.78;99444.13;10414117;28;20376;-72
2021/07/13 02:34:41;;;;;;;5.97;5.47;;;;;;;21.13;89.33;99435.41;10413105;28;20049;-72
2021/07/13 02:39:44;;;;;;;6.15;5.65;;;;;;;21.23;88.39;99430.38;10414441;28;20072;-72
2021/07/13 02:44:48;;;;;;;6.60;5.35;;;;;;;21.22;89.37;99417.06;10412004;28;20046;-73
2021/07/13 02:49:51;;;;;;;6.50;5.90;;;;;;;21.25;88.97;99422.03;10414330;28;20060;-72
2021/07/13 02:55:01;;;;;;;8.93;6.15;;;;;;;21.19;89.72;99399.38;10420319;28;20041;-73
2021/07/13 03:00:07;;;;;;;7.38;6.32;;;;;;;21.22;89.75;99404.34;10415640;28;20041;-73
2021/07/13 03:05:17;;;;;;;8.52;6.32;;;;;;;21.16;89.75;99419.56;10413332;28;20542;-73
2021/07/13 03:10:24;;;;;;;7.38;6.78;;;;;;;21.24;90.94;99417.66;10410451;28;20600;-73
2021/07/13 03:15:30;;;;;;;7.10;6.25;;;;;;;21.18;90.53;99400.41;10401971;28;20048;-71
2021/07/13 03:20:33;;;;;;;6.93;6.32;;;;;;;21.18;89.34;99409.38;10417780;28;20067;-73
2021/07/13 03:25:38;;;;;;;7.38;6.65;;;;;;;21.15;91.34;99414.34;10415946;28;20048;-72
2021/07/13 03:30:41;;;;;;;6.32;5.80;;;;;;;21.10;90.65;99420.41;10408461;28;20040;-72
2021/07/13 03:35:43;;;;;;;5.13;4.60;;;;;;;21.09;90.84;99407.94;10411569;28;20252;-72
2021/07/13 03:40:46;;;;;;;6.80;5.85;;;;;;;21.11;91.55;99416.66;10409167;28;20411;-72
2021/07/13 03:45:49;;;;;;;7.30;6.33;;;;;;;21.08;91.16;99427.91;10424733;28;20503;-73
2021/07/13 03:50:51;;;;;;;6.80;6.20;;;;;;;21.14;91.40;99432.47;10417671;28;20279;-72
2021/07/13 03:55:52;;;;;;;6.30;5.80;;;;;;;21.14;91.31;99418.13;10418175;28;20086;-72
2021/07/13 04:00:54;;;;;;;6.18;5.63;;;;;;;21.08;89.35;99417.09;10419244;28;20123;-71
2021/07/13 04:05:55;;;;;;;5.90;5.40;;;;;;;21.06;92.21;99418.34;10424508;28;20041;-72
2021/07/13 04:10:57;;;;;;;6.45;5.85;;;;;;;21.06;92.31;99402.94;10416342;28;20049;-74
2021/07/13 04:15:58;;;;;;;6.85;6.15;;;;;;;21.01;92.16;99405.47;10415099;28;20507;-73
2021/07/13 04:21:00;;;;;;;6.15;5.65;;;;;;;21.04;92.43;99405.03;10418648;28;20049;-74
2021/07/13 04:26:05;;;;;;;6.40;5.90;;;;;;;21.01;92.30;99400.03;10411901;28;20484;-73
2021/07/13 04:31:06;;;;;;;5.97;5.38;;;;;;;21.00;92.73;99388.41;10427597;28;20061;-73
2021/07/13 04:36:08;;;;;;;6.72;6.03;;;;;;;20.94;92.35;99383.00;10420254;28;20060;-73
2021/07/13 04:41:10;;;;;;;6.63;6.03;;;;;;;20.94;93.20;99372.19;10421989;28;20049;-74
2021/07/13 04:46:12;;;;;;;7.30;6.63;;;;;;;20.94;92.78;99364.91;10416890;28;20114;-73
2021/07/13 04:51:15;;;;;;;6.68;6.13;;;;;;;20.95;92.68;99358.44;10418108;28;20064;-72
2021/07/13 04:56:17;;;;;;;6.63;6.03;;;;;;;20.96;92.69;99359.28;10422918;28;20064;-74
2021/07/13 05:01:18;;;;;;;7.95;7.15;;;;;;;20.93;92.45;99328.06;10422016;28;20146;-73
2021/07/13 05:06:20;;;;;;;8.52;7.82;;;;;;;20.95;92.48;99317.03;10417791;28;20048;-74
2021/07/13 05:11:21;;;;;;;9.35;8.32;;;;;;;20.96;92.14;99316.00;10421132;28;20057;-73
2021/07/13 05:16:23;;;;;;;10.73;9.60;;;;;;;20.92;91.99;99293.94;10410480;28;20534;-73
2021/07/13 05:21:25;;;;;;;10.45;8.98;;;;;;;20.89;91.53;99293.56;10413756;28;20046;-74
2021/07/13 05:26:28;;;;;;;10.63;9.25;;;;;;;20.91;91.26;99286.06;10413892;28;20094;-73
2021/07/13 05:31:30;;;;;;;9.07;8.27;;;;;;;20.81;91.83;99273.00;10417353;28;20049;-73
2021/07/13 05:36:31;;;;;;;10.38;8.93;;;;;;;20.84;91.61;99284.22;10418285;28;20174;-73
2021/07/13 05:41:34;;;;;;;9.48;8.57;;;;;;;20.84;91.33;99277.97;10421950;28;20064;-71
2021/07/13 05:46:35;;;;;;;8.68;7.75;;;;;;;20.85;91.28;99287.72;10418878;28;20152;-73
2021/07/13 05:51:37;;;;;;;7.15;6.50;;;;;;;20.84;90.84;99283.38;10420959;28;20049;-73
2021/07/13 05:56:39;;;;;;;13.70;8.40;;;;;;;20.93;91.30;99302.91;10419493;28;20076;-73
2021/07/13 06:01:40;;;;;;;7.50;6.75;;;;;;;20.92;90.55;99306.66;10421319;28;20040;-74
2021/07/13 06:06:42;;;;;;;7.20;6.55;;;;;;;20.92;90.54;99314.78;10417440;28;20143;-75
2021/07/13 06:11:43;;;;;;;6.00;5.50;;;;;;;20.88;89.99;99325.16;10422872;28;20057;-73
2021/07/13 06:16:45;;;;;;;6.20;5.60;;;;;;;20.89;90.03;99331.44;10425607;28;20147;-73
2021/07/13 06:21:46;;;;;;;6.15;5.55;;;;;;;20.89;90.36;99344.94;10424709;28;20056;-73
2021/07/13 06:26:49;;;;;;;7.30;6.60;;;;;;;20.91;90.78;99357.22;10426708;28;20051;-74
2021/07/13 06:31:51;;;;;;;6.93;6.40;;;;;;;20.89;90.27;99347.66;10424740;28;20045;-74
2021/07/13 06:36:54;;;;;;;6.65;6.15;;;;;;;20.93;90.42;99348.91;10426549;28;20043;-74
2021/07/13 06:41:56;;;;;;;5.90;5.40;;;;;;;20.96;90.72;99340.34;10422436;28;20420;-74
2021/07/13 06:46:57;;;;;;;6.35;5.75;;;;;;;21.09;89.73;99334.03;10420262;28;20041;-74
2021/07/13 06:51:59;;;;;;;7.45;5.88;;;;;;;21.16;88.48;99319.44;10417404;28;20132;-73
2021/07/13 06:57:02;;;;;;;5.50;5.00;;;;;;;21.18;87.88;99325.47;10421453;28;20059;-73
2021/07/13 07:02:04;;;;;;;5.78;4.70;;;;;;;20.92;89.54;99336.41;10419030;28;20534;-74
2021/07/13 07:07:05;;;;;;;5.03;3.88;;;;;;;21.04;88.79;99350.09;10417968;28;20061;-73
2021/07/13 07:12:07;;;;;;;6.55;4.85;;;;;;;20.91;88.32;99350.97;10418364;28;20049;-72
2021/07/13 07:17:08;;;;;;;5.57;5.07;;;;;;;21.00;89.01;99366.75;10410622;28;20431;-71
2021/07/13 07:22:10;;;;;;;6.78;4.93;;;;;;;21.09;87.65;99358.41;10416656;28;20052;-73
2021/07/13 07:27:12;;;;;;;4.85;4.45;;;;;;;21.16;87.17;99349.19;10420975;28;20049;-71
2021/07/13 07:32:13;;;;;;;6.53;4.57;;;;;;;21.36;86.61;99354.53;10418493;28;20056;-72
2021/07/13 07:37:15;;;;;;;5.40;4.90;;;;;;;21.45;85.59;99344.28;10419948;28;20076;-72
2021/07/13 07:42:17;;;;;;;6.55;4.43;;;;;;;21.64;84.49;99336.28;10414855;28;20059;-72
2021/07/13 07:47:18;;;;;;;4.78;4.28;;;;;;;21.74;84.29;99328.53;10415517;28;20052;-72
2021/07/13 07:52:20;;;;;;;5.18;4.53;;;;;;;21.85;84.67;99325.09;10416478;28;20045;-71
2021/07/13 07:57:21;;;;;;;4.95;4.45;;;;;;;21.95;83.99;99311.06;10422154;28;20049;-73
2021/07/13 08:02:23;;;;;;;4.63;3.85;;;;;;;21.84;83.03;99315.31;10416118;28;20049;-70
2021/07/13 08:07:24;;;;;;;4.63;3.90;;;;;;;21.93;83.12;99304.19;10416262;28;20107;-72
2021/07/13 08:12:26;;;;;;;4.65;4.25;;;;;;;22.08;81.42;99307.41;10413460;28;20082;-73
2021/07/13 08:17:28;;;;;;;3.78;3.40;;;;;;;22.40;81.21;99313.59;10421008;28;20045;-72
2021/07/13 08:22:31;;;;;;;6.07;4.20;;;;;;;22.63;78.27;99309.41;10417248;28;20068;-72
2021/07/13 08:27:33;;;;;;;;;;;;;;;22.78;79.66;99309.03;10417446;28;20049;-73
2021/07/13 08:32:34;;;;;;;4.20;3.60;;;;;;;22.82;77.86;99303.97;10427616;28;19929;-76
2021/07/13 08:37:36;;;;;;;4.40;4.10;;;;;;;22.83;78.11;99311.88;10431793;28;20068;-75
2021/07/13 08:42:42;;;;;;;3.28;2.97;;;;;;;22.62;79.52;99323.19;10424985;28;20080;-75
2021/07/13 08:47:48;;;;;;;4.47;3.85;;;;;;;22.38;79.13;99329.28;10425781;28;20503;-74
2021/07/13 08:52:49;;;;;;;5.20;4.70;;;;;;;22.57;80.68;99337.44;10417669;28;20064;-74
2021/07/13 08:57:51;;;;;;;3.30;3.00;;;;;;;22.60;78.79;99332.38;10428003;28;20053;-74
2021/07/13 09:03:09;;;;;;;4.72;4.32;;;;;;;22.56;79.91;99344.75;10424433;28;20175;-74
2021/07/13 09:08:13;;;;;;;6.28;3.78;;;;;;;22.27;79.92;99348.13;10426652;28;20049;-75
2021/07/13 09:13:23;;;;;;;3.72;3.38;;;;;;;22.01;80.51;99353.53;10433331;28;20076;-73
2021/07/13 09:18:34;;;;;;;3.50;3.20;;;;;;;22.00;81.78;99356.47;10428723;28;20040;-73
2021/07/13 09:23:59;;;;;;;6.15;4.63;;;;;;;22.09;80.75;99360.56;10425221;28;20102;-74
2021/07/13 09:29:00;;;;;;;4.07;3.70;;;;;;;22.11;80.64;99355.72;10425663;28;20059;-72
2021/07/13 09:34:02;;;;;;;4.13;3.70;;;;;;;22.00;80.74;99348.31;10458584;28;20033;-75
2021/07/13 09:39:03;;;;;;;3.63;3.28;;;;;;;22.04;81.91;99338.72;10450223;28;20455;-73
2021/07/13 09:44:06;;;;;;;3.50;3.20;;;;;;;22.07;80.49;99327.44;10423629;28;20053;-74
2021/07/13 09:49:21;;;;;;;3.75;3.35;;;;;;;22.15;80.19;99323.63;10423545;28;20041;-73
2021/07/13 09:54:38;;;;;;;3.83;3.53;;;;;;;22.15;81.48;99313.59;10424174;28;20049;-74
2021/07/13 09:59:45;;;;;;;3.20;2.90;;;;;;;22.10;81.43;99310.72;10423249;28;20972;-74
2021/07/13 10:04:47;;;;;;;3.92;3.25;;;;;;;22.21;80.14;99334.38;10426104;28;20053;-73
2021/07/13 10:09:51;;;;;;;4.03;3.73;;;;;;;22.23;81.65;99347.72;10425398;28;20107;-73
2021/07/13 10:14:58;;;;;;;4.50;3.78;;;;;;;22.27;82.15;99350.81;10423509;28;20056;-75
2021/07/13 10:20:05;;;;;;;3.40;3.20;;;;;;;22.26;80.47;99358.09;10434706;28;20053;-75
2021/07/13 10:25:08;;;;;;;3.72;3.35;;;;;;;22.22;81.51;99352.31;10431359;28;20494;-75
2021/07/13 10:30:15;;;;;;;5.22;3.95;;;;;;;22.19;82.62;99341.09;10426180;28;20052;-75
2021/07/13 10:35:24;;;;;;;3.97;3.60;;;;;;;22.15;82.43;99329.03;10422549;28;20396;-74
2021/07/13 10:40:26;;;;;;;4.40;4.05;;;;;;;22.09;83.00;99321.78;10417230;28;20494;-75
2021/07/13 10:45:30;;;;;;;4.45;4.05;;;;;;;22.03;84.48;99331.63;10422182;28;20053;-74
2021/07/13 10:50:34;;;;;;;4.43;4.03;;;;;;;21.97;84.52;99327.09;10419689;28;20045;-74
2021/07/13 10:55:37;;;;;;;4.93;4.45;;;;;;;21.98;84.83;99332.28;10420650;22;20056;-58
2021/07/13 11:00:48;;;;;;;4.40;4.03;;;;;;;21.99;84.32;99301.44;10366245;28;20057;-56
2021/07/13 11:05:50;;;;;;;5.05;4.32;;;;;;;21.88;82.21;99286.72;10363265;28;20045;-56
2021/07/13 11:10:51;;;;;;;4.43;4.03;;;;;;;21.73;83.59;99293.53;10360883;28;20058;-57
2021/07/13 11:15:53;;;;;;;6.65;5.20;;;;;;;21.83;84.71;99332.63;10362985;28;20053;-57
2021/07/13 11:20:54;;;;;;;7.20;5.65;;;;;;;22.18;83.76;99350.28;10363332;28;20046;-59
2021/07/13 11:26:07;;;;;;;5.35;4.82;;;;;;;22.36;81.99;99341.38;10360607;28;20176;-58
2021/07/13 11:31:09;;;;;;;5.75;4.03;;;;;;;23.06;80.02;99340.19;10361022;28;20052;-58
2021/07/13 11:36:11;;;;;;;4.43;4.03;;;;;;;23.91;76.31;99342.00;10353761;28;20064;-58
2021/07/13 11:41:15;;;;;;;4.82;4.22;;;;;;;24.58;73.51;99354.50;10360355;28;20049;-56
2021/07/13 11:46:21;;;;;;;4.75;3.88;;;;;;;24.67;72.54;99347.63;10359772;28;22413;-57
2021/07/13 11:51:35;;;;;;;4.50;3.80;;;;;;;24.62;73.25;99342.09;10360858;28;20049;-56
2021/07/13 11:56:39;;;;;;;4.40;3.65;;;;;;;24.72;72.52;99362.41;10359618;28;20068;-58
2021/07/13 12:01:42;;;;;;;4.20;3.50;;;;;;;24.89;70.75;99341.53;10365536;28;20065;-57
2021/07/13 12:06:44;;;;;;;3.97;3.63;;;;;;;25.35;69.50;99356.13;10366612;28;20061;-57
2021/07/13 12:11:46;;;;;;;3.90;3.60;;;;;;;26.14;66.14;99357.28;10367965;28;20493;-57
2021/07/13 12:16:48;;;;;;;4.07;3.30;;;;;;;25.64;66.70;99356.16;10365509;28;20045;-57
2021/07/13 12:21:54;;;;;;;4.90;3.42;;;;;;;25.56;66.30;99367.41;10364495;28;20087;-56
2021/07/13 12:26:57;;;;;;;3.90;3.60;;;;;;;25.05;67.59;99338.06;10365022;28;20045;-59
2021/07/13 12:32:02;;;;;;;4.18;3.85;;;;;;;24.99;68.73;99365.44;10369745;28;20053;-57
2021/07/13 12:37:06;;;;;;;3.50;3.20;;;;;;;25.00;68.20;99364.38;10369159;28;20140;-58
2021/07/13 12:42:12;;;;;;;4.13;3.72;;;;;;;24.83;69.31;99373.28;10365506;28;20064;-57
2021/07/13 12:47:17;;;;;;;4.30;4.00;;;;;;;24.26;70.32;99376.56;10363892;28;20457;-58
2021/07/13 12:52:30;;;;;;;3.35;3.15;;;;;;;24.40;70.82;99376.34;10365722;28;20041;-60
2021/07/13 12:57:35;;;;;;;3.60;3.30;;;;;;;24.32;70.20;99375.63;10366538;28;20053;-58
2021/07/13 13:02:38;;;;;;;4.13;3.72;;;;;;;24.02;70.55;99364.00;10368596;28;20130;-59
2021/07/13 13:07:41;;;;;;;4.60;4.20;;;;;;;24.04;72.26;99389.06;10365952;28;20057;-58
2021/07/13 13:12:50;;;;;;;4.35;3.90;;;;;;;24.01;72.73;99395.78;10370139;28;20437;-58
2021/07/13 13:17:53;;;;;;;5.60;3.92;;;;;;;23.91;70.94;99398.25;10368334;28;20042;-57
2021/07/13 13:22:56;;;;;;;;;;;;;;;24.16;70.86;99409.75;10367751;28;20053;-58
2021/07/13 13:27:58;;;;;;;4.25;3.85;;;;;;;24.39;69.70;99386.38;10367801;28;19924;-57
2021/07/13 13:33:00;;;;;;;4.35;3.95;;;;;;;24.58;66.47;99406.19;10367859;28;20713;-58
2021/07/13 13:38:07;;;;;;;1.30;1.20;;;;;;;23.61;66.38;99410.72;10367680;28;20053;-57
2021/07/13 13:43:09;;;;;;;2.15;0.20;;;;;;;22.64;68.75;99434.97;10368263;28;20048;-57
2021/07/13 13:48:11;;;;;;;0.50;0.20;;;;;;;21.92;70.30;99428.00;10364802;28;20053;-56
2021/07/13 13:53:13;;;;;;;0.93;0.30;;;;;;;21.95;70.96;99456.50;10366159;28;20172;-58
2021/07/13 13:58:35;;;;;;;0.22;0.10;;;;;;;21.63;70.96;99456.47;10362572;28;20414;-57
2021/07/13 14:03:37;;;;;;;0.60;0.30;;;;;;;21.27;71.60;99463.25;10366108;28;20053;-59
2021/07/13 14:08:41;;;;;;;1.17;0.20;;;;;;;21.50;71.99;99460.91;10362792;28;20538;-57
2021/07/13 14:13:43;;;;;;;1.30;0.30;;;;;;;21.48;71.61;99464.84;10362436;28;20064;-58
2021/07/13 14:18:45;;;;;;;0.80;0.15;;;;;;;21.18;72.95;99481.59;10362942;28;20045;-63
2021/07/13 14:23:48;;;;;;;0.30;0.20;;;;;;;20.87;72.91;99484.97;10361222;28;20132;-57
2021/07/13 14:28:50;;;;;;;0.75;0.17;;;;;;;20.62;74.77;99489.09;10359355;28;20053;-57
2021/07/13 14:33:53;;;;;;;0.37;0.10;;;;;;;20.49;75.55;99495.34;10359753;28;20072;-53
2021/07/13 14:38:54;;;;;;;0.57;0.20;;;;;;;20.73;74.29;99487.69;10358519;28;20045;-53
2021/07/13 14:43:56;;;;;;;0.95;0.43;;;;;;;20.59;74.93;99483.28;10359621;28;20063;-54
2021/07/13 14:48:57;;;;;;;0.10;0.00;;;;;;;20.55;74.35;99482.03;10361560;28;20050;-55
2021/07/13 14:53:59;;;;;;;1.23;0.25;;;;;;;20.55;74.45;99479.31;10362314;28;20187;-52
2021/07/13 14:59:00;;;;;;;1.00;0.30;;;;;;;20.54;74.71;99469.56;10363505;28;20049;-56
2021/07/13 15:04:04;;;;;;;0.82;0.30;;;;;;;20.82;73.36;99478.31;10363751;28;20051;-55
2021/07/13 15:09:05;;;;;;;0.90;0.10;;;;;;;20.63;73.29;99484.53;10358489;28;20056;-56
2021/07/13 15:14:08;;;;;;;0.20;0.10;;;;;;;20.36;73.83;99471.00;10363239;28;20053;-56
2021/07/13 15:19:11;;;;;;;0.80;0.10;;;;;;;20.70;73.00;99463.75;10361645;28;20049;-56
2021/07/13 15:24:12;;;;;;;1.50;0.10;;;;;;;20.80;72.14;99472.28;10363200;28;20049;-56
2021/07/13 15:29:14;;;;;;;0.82;0.30;;;;;;;20.72;72.58;99483.31;10360939;28;20053;-56
2021/07/13 15:34:16;;;;;;;2.08;0.10;;;;;;;20.61;72.84;99481.19;10361687;28;20064;-58
2021/07/13 15:39:18;;;;;;;1.25;0.30;;;;;;;20.56;73.46;99478.31;10358632;28;20485;-61
2021/07/13 15:44:19;;;;;;;0.40;0.10;;;;;;;20.45;73.26;99472.47;10357151;28;20049;-59
2021/07/13 15:49:21;;;;;;;0.52;0.20;;;;;;;20.38;73.78;99493.25;10342231;28;20049;-56
2021/07/13 15:54:23;;;;;;;1.60;0.13;;;;;;;20.10;75.42;99483.44;10354689;28;20084;-55
2021/07/13 15:59:27;;;;;;;0.50;0.20;;;;;;;20.04;75.67;99462.66;10357743;28;20053;-54
2021/07/13 16:04:28;;;;;;;1.23;0.10;;;;;;;20.29;75.11;99453.94;10360226;28;20065;-56
2021/07/13 16:09:30;;;;;;;1.00;0.10;;;;;;;20.56;72.98;99453.97;10357066;28;20048;-56
2021/07/13 16:14:31;;;;;;;0.45;0.10;;;;;;;20.55;73.75;99471.22;10356861;28;20149;-56
2021/07/13 16:19:33;;;;;;;0.50;0.20;;;;;;;20.61;73.50;99475.78;10358703;28;20072;-56
2021/07/13 16:24:35;;;;;;;1.80;0.40;;;;;;;20.61;73.46;99479.34;10361378;28;20061;-56
2021/07/13 16:29:36;;;;;;;0.95;0.10;;;;;;;20.66;73.03;99468.75;10359160;28;20057;-53
2021/07/13 16:34:38;;;;;;;1.75;0.28;;;;;;;20.57;73.45;99486.19;10358593;28;20069;-58
2021/07/13 16:39:40;;;;;;;1.25;0.43;;;;;;;20.58;73.98;99487.03;10358894;28;20406;-55
2021/07/13 16:44:41;;;;;;;0.85;0.17;;;;;;;20.55;74.31;99491.00;10357098;28;20056;-56
2021/07/13 16:49:43;;;;;;;1.42;0.40;;;;;;;20.29;75.30;99497.19;10357889;28;20410;-55
2021/07/13 16:54:47;;;;;;;2.90;0.90;;;;;;;20.18;75.45;99505.91;10365839;28;20072;-56
2021/07/13 16:59:49;;;;;;;0.82;0.20;;;;;;;20.11;75.87;99504.00;10363895;28;20076;-55
2021/07/13 17:04:50;;;;;;;0.30;0.10;;;;;;;20.04;76.67;99492.38;10365016;28;20045;-55
2021/07/13 17:09:52;;;;;;;0.70;0.10;;;;;;;20.04;76.57;99500.47;10363932;28;20060;-57
2021/07/13 17:14:56;;;;;;;0.40;0.15;;;;;;;19.94;76.89;99513.53;10365976;28;20144;-56
2021/07/13 17:19:58;;;;;;;2.25;0.20;;;;;;;19.69;77.73;99527.50;10384438;22;20064;-63
2021/07/13 17:24:59;;;;;;;0.60;0.30;;;;;;;19.71;77.89;99533.56;10365192;28;20050;-62
2021/07/13 17:30:03;;;;;;;0.65;0.32;;;;;;;19.65;78.13;99563.22;10363457;28;20065;-63
2021/07/13 17:35:05;;;;;;;1.05;0.47;;;;;;;19.54;78.23;99545.72;10365837;28;20053;-63
2021/07/13 17:40:09;;;;;;;0.82;0.40;;;;;;;19.53;78.56;99544.03;10365207;28;20049;-63
2021/07/13 17:45:11;;;;;;;;;;;;;;;19.57;78.09;99546.13;10361283;28;20073;-63
2021/07/13 17:50:12;;;;;;;1.10;0.73;;;;;;;19.58;78.32;99555.09;10357942;28;19930;-64
2021/07/13 17:55:15;;;;;;;1.35;0.80;;;;;;;19.37;79.20;99546.03;10362046;28;20063;-62
2021/07/13 18:00:16;;;;;;;2.25;1.10;;;;;;;19.25;79.76;99543.06;10348887;28;20049;-63
2021/07/13 18:05:18;;;;;;;2.72;1.10;;;;;;;19.24;80.08;99546.78;10360013;28;20061;-63
2021/07/13 18:10:20;;;;;;;2.92;2.13;;;;;;;19.28;80.50;99535.63;10365941;28;20049;-62
2021/07/13 18:15:22;;;;;;;2.50;1.20;;;;;;;19.28;80.41;99525.63;10363192;28;22180;-63
2021/07/13 18:20:23;;;;;;;1.23;1.00;;;;;;;19.34;80.59;99530.25;10361938;28;20521;-63
2021/07/13 18:25:25;;;;;;;1.60;1.50;;;;;;;19.18;82.06;99541.34;10366158;28;20049;-63
2021/07/13 18:30:27;;;;;;;1.80;1.17;;;;;;;19.02;83.03;99546.00;10363492;28;20371;-63
2021/07/13 18:35:28;;;;;;;6.40;1.35;;;;;;;19.05;83.34;99559.09;10361522;28;20056;-63
2021/07/13 18:40:30;;;;;;;0.95;0.82;;;;;;;19.16;83.34;99549.63;10361143;28;20053;-64
2021/07/13 18:45:34;;;;;;;1.75;0.98;;;;;;;18.95;83.78;99545.13;10359948;28;20578;-64
2021/07/13 18:50:37;;;;;;;3.28;1.00;;;;;;;18.91;82.81;99530.34;10362202;28;20172;-61
2021/07/13 18:55:40;;;;;;;1.90;1.10;;;;;;;18.97;82.47;99553.00;10365771;28;20469;-63
2021/07/13 19:00:42;;;;;;;1.33;0.80;;;;;;;18.88;82.22;99557.72;10366029;28;20057;-64
2021/07/13 19:05:45;;;;;;;1.52;0.68;;;;;;;18.94;81.49;99550.72;10363430;28;20057;-64
2021/07/13 19:10:49;;;;;;;1.30;0.68;;;;;;;18.80;82.02;99549.75;10361124;28;20049;-62
2021/07/13 19:15:51;;;;;;;1.15;0.70;;;;;;;18.72;82.66;99548.84;10359164;28;20045;-62
2021/07/13 19:20:53;;;;;;;1.02;0.60;;;;;;;18.72;82.85;99559.63;10359777;28;20057;-62
2021/07/13 19:25:54;;;;;;;2.53;1.35;;;;;;;18.63;82.78;99539.22;10363357;28;20045;-62
2021/07/13 19:30:56;;;;;;;1.13;0.55;;;;;;;18.53;83.29;99562.97;10359547;28;20056;-61
2021/07/13 19:41:18;;;;;;;0.95;0.20;;;;;;;18.29;82.16;99586.56;10362353;28;20087;-63
2021/07/13 19:46:20;;;;;;;1.30;0.40;;;;;;;18.37;81.16;99586.44;10358265;28;20158;-63
2021/07/13 19:51:21;;;;;;;0.88;0.32;;;;;;;18.22;80.67;99591.03;10342398;28;20241;-63
2021/07/13 19:56:23;;;;;;;1.40;0.30;;;;;;;18.18;80.97;99587.06;10356366;28;20060;-63
2021/07/13 20:01:25;;;;;;;2.92;0.38;;;;;;;18.17;80.94;99599.66;10352155;28;20068;-63
2021/07/13 20:06:26;;;;;;;0.63;0.25;;;;;;;18.27;80.49;99604.78;10360829;28;20053;-63
2021/07/13 20:11:28;;;;;;;0.98;0.40;;;;;;;18.23;79.45;99597.25;10357467;28;20127;-63
2021/07/13 20:16:31;;;;;;;2.47;0.45;;;;;;;18.18;79.98;99595.13;10359281;28;20053;-62
2021/07/13 20:21:34;;;;;;;2.75;0.45;;;;;;;18.14;80.01;99593.84;10357888;28;20068;-63
2021/07/13 20:26:36;;;;;;;1.25;0.57;;;;;;;18.15;79.79;99587.41;10362168;28;20053;-63
2021/07/13 20:31:37;;;;;;;1.77;0.50;;;;;;;18.04;79.76;99588.72;10364286;28;20609;-62
2021/07/13 20:36:39;;;;;;;2.58;0.95;;;;;;;18.05;79.81;99582.34;10366094;28;20099;-62
2021/07/13 20:41:40;;;;;;;1.52;0.70;;;;;;;18.08;79.58;99581.13;10362202;28;20053;-65
2021/07/13 20:46:42;;;;;;;2.17;0.93;;;;;;;18.01;79.42;99570.25;10363714;28;20407;-63
2021/07/13 20:51:43;;;;;;;1.55;0.55;;;;;;;17.94;79.81;99554.03;10364098;28;20045;-63
2021/07/13 20:56:45;;;;;;;3.30;0.50;;;;;;;17.97;79.54;99567.13;10359322;28;20397;-63
2021/07/13 21:01:48;;;;;;;0.90;0.60;;;;;;;17.95;79.66;99558.38;10361624;28;20051;-62
2021/07/13 21:06:51;;;;;;;2.45;0.80;;;;;;;17.83;80.03;99544.56;10362535;28;20068;-62
2021/07/13 21:11:55;;;;;;;1.63;0.60;;;;;;;17.92;79.88;99558.75;10350399;28;20033;-62
2021/07/13 21:16:56;;;;;;;1.85;0.43;;;;;;;17.92;79.79;99561.44;10359611;28;20606;-62
2021/07/13 21:21:59;;;;;;;1.80;0.90;;;;;;;17.99;79.73;99558.88;10353473;28;20041;-62
2021/07/13 21:27:00;;;;;;;1.75;0.93;;;;;;;18.05;79.36;99559.97;10345459;28;20049;-62
2021/07/13 21:32:02;;;;;;;2.90;1.00;;;;;;;18.07;79.17;99566.81;10352375;28;20824;-62
2021/07/13 21:37:04;;;;;;;0.90;0.65;;;;;;;17.88;79.75;99572.75;10353293;28;20052;-63
2021/07/13 21:42:06;;;;;;;2.03;1.10;;;;;;;17.87;79.86;99582.69;10372412;28;20694;-63
2021/07/13 21:47:08;;;;;;;3.25;1.10;;;;;;;17.82;80.29;99569.81;10357450;28;20049;-62
2021/07/13 21:52:09;;;;;;;3.63;0.93;;;;;;;17.94;80.20;99558.56;10361182;28;20048;-62
2021/07/13 21:57:11;;;;;;;3.30;1.33;;;;;;;18.04;79.14;99560.97;10360460;28;20418;-63
2021/07/13 22:02:14;;;;;;;1.98;0.98;;;;;;;17.99;79.46;99566.94;10360428;28;20513;-62
2021/07/13 22:07:16;;;;;;;3.70;1.37;;;;;;;18.04;79.43;99555.59;10356841;28;20056;-63
2021/07/13 22:12:18;;;;;;;3.20;1.00;;;;;;;18.06;79.32;99554.41;10359369;28;20060;-63
2021/07/13 22:17:20;;;;;;;3.55;1.30;;;;;;;17.99;79.54;99570.47;10354928;28;20045;-63
2021/07/13 22:22:22;;;;;;;2.42;1.10;;;;;;;17.96;80.11;99565.44;10366618;28;20053;-63
2021/07/13 22:27:23;;;;;;;1.90;1.13;;;;;;;17.99;79.57;99573.16;10367179;28;20149;-63
2021/07/13 22:32:25;;;;;;;2.72;0.98;;;;;;;18.01;79.11;99572.97;10366547;28;20057;-64
2021/07/13 22:37:27;;;;;;;0.85;0.80;;;;;;;17.93;79.85;99579.28;10386621;28;20061;-62
2021/07/13 22:42:28;;;;;;;2.15;1.00;;;;;;;17.93;79.45;99578.47;10393223;28;20653;-63
2021/07/13 22:47:30;;;;;;;4.75;1.80;;;;;;;17.96;80.03;99596.94;10394372;28;20045;-63
2021/07/13 22:52:32;;;;;;;2.95;1.20;;;;;;;18.09;79.48;99582.78;10395235;28;20046;-63
2021/07/13 22:57:35;;;;;;;5.32;1.52;;;;;;;17.91;79.28;99572.41;10394221;28;20064;-62
2021/07/13 23:02:37;;;;;;;3.13;1.30;;;;;;;17.81;80.13;99588.84;10395586;28;20041;-60
2021/07/13 23:07:40;;;;;;;3.47;1.67;;;;;;;17.83;79.77;99576.00;10395411;28;20678;-64
2021/07/13 23:12:42;;;;;;;3.78;1.95;;;;;;;17.79;79.87;99588.16;10395009;28;20128;-62
2021/07/13 23:17:44;;;;;;;2.55;1.38;;;;;;;17.81;79.73;99599.59;10425756;22;20045;-62
2021/07/13 23:22:52;;;;;;;1.75;1.50;;;;;;;17.83;79.77;99602.94;10442540;28;20049;-63
2021/07/13 23:27:54;;;;;;;3.20;1.90;;;;;;;17.88;79.17;99595.16;10433008;28;20052;-62
2021/07/13 23:32:56;;;;;;;2.55;1.40;;;;;;;17.82;79.31;99587.81;10422033;28;20037;-62
2021/07/13 23:37:58;;;;;;;3.17;1.58;;;;;;;17.81;79.22;99561.91;10421166;28;20056;-63